Tlaxcala, Mexico

3:14 AM CDT on July 24, 2016 (GMT -0500)
PROTECCION CIVIL MUN PUE01 | | Change Station

Elev 7123 ft 19.06 °N, 98.22 °W | Updated 18 seconds ago

Scattered Clouds
Scattered Clouds
61.5 °F
Feels Like 61.5 °F
N
1.1
Wind Variable Wind from NE
Gusts 2.5 mph

Today
High -- | Low -- °F
--% Chance of Precip.
Yesterday
High -- | Low -- °F
Precip. -- in
Pressure 30.36 in
Visibility 10.0 miles
Clouds Few 2000 ft
Scattered Clouds 8000 ft
Scattered Clouds 20000 ft
Dew Point 55 °F
Humidity 80%
Rainfall 0.00 in
Snow Depth Not available.
7:06 AM 8:11 PM
Waning Gibbous, 78% visible
METAR MMMX 240741Z 33004KT 10SM FEW020 SCT080 SCT200 16/12 A3036 NOSIG RMK 8/532 HZY
Pressure 30.36 in
Visibility 10.0 miles
Clouds Few 2000 ft
Scattered Clouds 8000 ft
Scattered Clouds 20000 ft
Dew Point 55 °F
Humidity 80%
Rainfall 0.00 in
Snow Depth Not available.
7:06 AM 8:11 PM
Waning Gibbous, 78% visible
METAR MMMX 240741Z 33004KT 10SM FEW020 SCT080 SCT200 16/12 A3036 NOSIG RMK 8/532 HZY

10-Day Weather Forecast

No radar image for this location.
×

Almanac

Astronomy

Jul. 24, 2016 Rise Set
Actual Time
Civil Twilight
Nautical Twilight
Astronomical Twilight
Moon
Length of Visible Light
Length of Day
Tomorrow will be .
, % of the Moon is Illuminated

Today's Extremes

Country Highs Country Lows

Community

WunderPhotos

Upload Photos

1,927,041 photos uploaded!

WunderBlog® & News

Nearby

Air Quality

  Air Quality AQ Index Pollutant
Not available.

Snow Depth

Station Depth Elevation

Earthquake Activity

City Distance Mag. Time & Date
Minimum magnitude displayed is 2.5.

Coastal Water Temperatures

Place Temperature

Stations

Nearby Weather Stations

Station Location Temp. Windchill Dew Point Humidity Wind Precip. Elev Updated Type